Time;durP1;ratioP1;P1;durP2;ratioP2;P2;SDS_P1;SDS_P2;PMS_P1;PMS_P2;Temp;Humidity;BMP_temperature;BMP_pressure;BME280_temperature;BME280_humidity;BME280_pressure;Samples;Min_cycle;Max_cycle;Signal;HPM_P1;HPM_P2
2022/11/11 00:00:11;;;;;;;;;;;;;;;;;;940732;27;20163;-76
2022/11/11 00:00:42;;;;;;;;;;;;;;;;;;940637;27;19923;-75
2022/11/11 00:01:16;;;;;;;;;;;;;;;;;;940715;27;19919;-76
2022/11/11 00:01:47;;;;;;;;;;;;;;;;;;940546;27;19976;-75
2022/11/11 00:02:17;;;;;;;;;;;;;;;;;;940866;27;19985;-76
2022/11/11 00:02:51;;;;;;;;;;;;;;;;;;940651;27;19932;-76
2022/11/11 00:03:21;;;;;;;;;;;;;;;;;;940719;27;20262;-75
2022/11/11 00:03:54;;;;;;;;;;;;;;;;;;940594;27;19918;-76
2022/11/11 00:04:24;;;;;;;;;;;;;;;;;;940711;27;19983;-76
2022/11/11 00:04:58;;;;;;;;;;;;;;;;;;940584;27;19933;-76
2022/11/11 00:05:28;;;;;;;;;;;;;;;;;;940664;27;19975;-77
2022/11/11 00:06:00;;;;;;;;;;;;;;;;;;940741;27;19979;-76
2022/11/11 00:06:35;;;;;;;;;;;;;;;;;;940926;27;19923;-76
2022/11/11 00:07:06;;;;;;;;;;;;;;;;;;940644;27;19911;-76
2022/11/11 00:07:37;;;;;;;;;;;;;;;;;;940678;27;19931;-76
2022/11/11 00:08:10;;;;;;;;;;;;;;;;;;940617;27;20322;-77
2022/11/11 00:08:41;;;;;;;;;;;;;;;;;;940692;27;19927;-76
2022/11/11 00:09:12;;;;;;;;;;;;;;;;;;940655;27;19927;-76
2022/11/11 00:09:45;;;;;;;;;;;;;;;;;;940825;27;19914;-76
2022/11/11 00:10:16;;;;;;;;;;;;;;;;;;940864;27;20332;-76
2022/11/11 00:10:47;;;;;;;;;;;;;;;;;;940541;27;19980;-76
2022/11/11 00:11:20;;;;;;;;;;;;;;;;;;940665;27;19938;-76
2022/11/11 00:11:51;;;;;;;;;;;;;;;;;;940821;27;19987;-75
2022/11/11 00:12:22;;;;;;;;;;;;;;;;;;940699;27;19923;-76
2022/11/11 00:12:55;;;;;;;;;;;;;;;;;;940751;27;20272;-76
2022/11/11 00:13:27;;;;;;;;;;;;;;;;;;940676;27;20046;-76
2022/11/11 00:13:57;;;;;;;;;;;;;;;;;;940671;27;19939;-76
2022/11/11 00:14:31;;;;;;;;;;;;;;;;;;940908;27;19923;-75
2022/11/11 00:15:01;;;;;;;;;;;;;;;;;;940632;27;20052;-76
2022/11/11 00:15:35;;;;;;;;;;;;;;;;;;940712;27;19931;-75
2022/11/11 00:16:09;;;;;;;;;;;;;;;;;;940715;27;19980;-76
2022/11/11 00:25:24;;;;;;;;;;;;;;;;;;940496;27;19922;-75
2022/11/11 00:25:55;;;;;;;;;;;;;;;;;;940649;27;19924;-76
2022/11/11 00:26:26;;;;;;;;;;;;;;;;;;940694;27;19959;-75
2022/11/11 00:26:56;;;;;;;;;;;;;;;;;;940648;27;20394;-76
2022/11/11 00:27:30;;;;;;;;;;;;;;;;;;940540;27;20505;-76
2022/11/11 00:28:00;;;;;;;;;;;;;;;;;;940691;27;19907;-76
2022/11/11 00:28:31;;;;;;;;;;;;;;;;;;940617;27;19978;-76
2022/11/11 00:29:04;;;;;;;;;;;;;;;;;;940576;27;19915;-76
2022/11/11 00:29:36;;;;;;;;;;;;;;;;;;940628;27;20307;-75
2022/11/11 00:30:08;;;;;;;;;;;;;;;;;;940567;27;19907;-76
2022/11/11 00:30:41;;;;;;;;;;;;;;;;;;940561;27;19975;-75
2022/11/11 00:31:12;;;;;;;;;;;;;;;;;;940779;27;20211;-75
2022/11/11 00:32:33;;;;;;;;;;;;;;;;;;940410;27;19919;-75
2022/11/11 00:33:04;;;;;;;;;;;;;;;;;;940455;27;19983;-75
2022/11/11 00:33:35;;;;;;;;;;;;;;;;;;940770;27;20471;-76
2022/11/11 00:34:05;;;;;;;;;;;;;;;;;;940706;27;19981;-76
2022/11/11 00:34:39;;;;;;;;;;;;;;;;;;940494;27;19930;-75
2022/11/11 00:35:56;;;;;;;;;;;;;;;;;;940820;27;19920;-75
2022/11/11 00:36:26;;;;;;;;;;;;;;;;;;940582;27;19976;-76
2022/11/11 00:36:57;;;;;;;;;;;;;;;;;;940697;27;19953;-75
2022/11/11 00:37:30;;;;;;;;;;;;;;;;;;940488;27;20221;-76
2022/11/11 00:38:08;;;;;;;;;;;;;;;;;;940581;27;19927;-76
2022/11/11 00:38:46;;;;;;;;;;;;;;;;;;940654;27;20361;-76
2022/11/11 00:39:17;;;;;;;;;;;;;;;;;;940605;27;19987;-75
2022/11/11 00:39:48;;;;;;;;;;;;;;;;;;940437;27;19908;-75
2022/11/11 00:40:21;;;;;;;;;;;;;;;;;;940584;27;20184;-76
2022/11/11 00:40:52;;;;;;;;;;;;;;;;;;940453;27;19976;-74
2022/11/11 00:41:24;;;;;;;;;;;;;;;;;;940580;27;20239;-75
2022/11/11 00:41:57;;;;;;;;;;;;;;;;;;940740;27;19931;-74
2022/11/11 00:42:28;;;;;;;;;;;;;;;;;;940604;27;20045;-77
2022/11/11 00:42:59;;;;;;;;;;;;;;;;;;940554;27;20275;-76
2022/11/11 00:43:32;;;;;;;;;;;;;;;;;;940604;27;19927;-76
2022/11/11 00:44:03;;;;;;;;;;;;;;;;;;940551;27;19983;-75
2022/11/11 00:44:34;;;;;;;;;;;;;;;;;;940561;27;19931;-76
2022/11/11 00:45:08;;;;;;;;;;;;;;;;;;940647;27;19934;-75
2022/11/11 00:45:39;;;;;;;;;;;;;;;;;;940494;27;20310;-75
2022/11/11 00:51:32;;;;;;;;;;;;;;;;;;940599;27;19919;-74
2022/11/11 00:52:03;;;;;;;;;;;;;;;;;;940648;27;19984;-76
2022/11/11 00:52:36;;;;;;;;;;;;;;;;;;940539;27;19960;-75
2022/11/11 00:53:08;;;;;;;;;;;;;;;;;;940551;27;19972;-75
2022/11/11 00:53:42;;;;;;;;;;;;;;;;;;940595;27;20178;-76
2022/11/11 00:54:12;;;;;;;;;;;;;;;;;;940519;27;19999;-75
2022/11/11 00:54:43;;;;;;;;;;;;;;;;;;940576;27;19969;-76
2022/11/11 00:55:17;;;;;;;;;;;;;;;;;;940683;27;19918;-75
2022/11/11 00:55:47;;;;;;;;;;;;;;;;;;940578;27;19923;-75
2022/11/11 00:56:18;;;;;;;;;;;;;;;;;;940694;27;19903;-77
2022/11/11 00:56:51;;;;;;;;;;;;;;;;;;940468;27;20739;-76
2022/11/11 00:57:22;;;;;;;;;;;;;;;;;;940562;27;19923;-75
2022/11/11 00:57:53;;;;;;;;;;;;;;;;;;940458;27;19923;-77
2022/11/11 00:58:27;;;;;;;;;;;;;;;;;;940427;27;19925;-76
2022/11/11 00:58:57;;;;;;;;;;;;;;;;;;940474;27;19923;-74
2022/11/11 00:59:28;;;;;;;;;;;;;;;;;;940503;27;19927;-76
2022/11/11 00:59:58;;;;;;;;;;;;;;;;;;940435;27;19983;-76
2022/11/11 01:00:32;;;;;;;;;;;;;;;;;;940724;27;19946;-76
2022/11/11 01:01:03;;;;;;;;;;;;;;;;;;940433;27;19919;-76
2022/11/11 01:01:34;;;;;;;;;;;;;;;;;;940532;27;20018;-76
2022/11/11 01:02:07;;;;;;;;;;;;;;;;;;940566;27;20462;-76
2022/11/11 01:02:38;;;;;;;;;;;;;;;;;;940554;27;19915;-75
2022/11/11 01:03:09;;;;;;;;;;;;;;;;;;940755;27;19991;-76
2022/11/11 01:03:42;;;;;;;;;;;;;;;;;;940479;27;19975;-76
2022/11/11 01:04:12;;;;;;;;;;;;;;;;;;940561;27;20172;-76
2022/11/11 01:04:43;;;;;;;;;;;;;;;;;;940626;27;19935;-76
2022/11/11 01:05:16;;;;;;;;;;;;;;;;;;940616;27;20019;-76
2022/11/11 01:05:48;;;;;;;;;;;;;;;;;;940640;27;20145;-75
2022/11/11 01:06:19;;;;;;;;;;;;;;;;;;940643;27;20037;-77
2022/11/11 01:06:52;;;;;;;;;;;;;;;;;;940612;27;19966;-76
2022/11/11 01:07:23;;;;;;;;;;;;;;;;;;940414;27;19941;-76
2022/11/11 01:07:56;;;;;;;;;;;;;;;;;;940468;27;19977;-76
2022/11/11 01:08:29;;;;;;;;;;;;;;;;;;940444;27;19931;-76
2022/11/11 01:09:03;;;;;;;;;;;;;;;;;;940435;27;19919;-75
2022/11/11 01:09:34;;;;;;;;;;;;;;;;;;940668;27;19966;-75
2022/11/11 01:10:08;;;;;;;;;;;;;;;;;;940629;27;20543;-77
2022/11/11 01:10:40;;;;;;;;;;;;;;;;;;940472;27;19915;-76
2022/11/11 01:11:12;;;;;;;;;;;;;;;;;;940553;27;20243;-75
2022/11/11 01:11:45;;;;;;;;;;;;;;;;;;940669;27;19915;-75
2022/11/11 01:12:15;;;;;;;;;;;;;;;;;;940569;27;19923;-76
2022/11/11 01:12:46;;;;;;;;;;;;;;;;;;940615;27;19919;-75
2022/11/11 01:13:21;;;;;;;;;;;;;;;;;;940604;27;20580;-77
2022/11/11 01:13:52;;;;;;;;;;;;;;;;;;940573;27;19911;-77
2022/11/11 01:14:22;;;;;;;;;;;;;;;;;;940578;27;19976;-75
2022/11/11 01:14:56;;;;;;;;;;;;;;;;;;940615;27;19923;-76
2022/11/11 01:15:26;;;;;;;;;;;;;;;;;;940664;27;19923;-75
2022/11/11 01:15:59;;;;;;;;;;;;;;;;;;940507;27;19923;-75
2022/11/11 01:16:32;;;;;;;;;;;;;;;;;;940579;28;20002;-75
2022/11/11 01:17:03;;;;;;;;;;;;;;;;;;940514;27;19911;-77
2022/11/11 01:17:34;;;;;;;;;;;;;;;;;;940669;27;19973;-76
2022/11/11 01:18:05;;;;;;;;;;;;;;;;;;940471;27;20236;-75
2022/11/11 01:18:39;;;;;;;;;;;;;;;;;;940638;27;20179;-76
2022/11/11 01:19:09;;;;;;;;;;;;;;;;;;940678;27;19923;-76
2022/11/11 01:19:40;;;;;;;;;;;;;;;;;;940513;27;20216;-76
2022/11/11 01:20:11;;;;;;;;;;;;;;;;;;940432;27;19974;-76
2022/11/11 01:20:44;;;;;;;;;;;;;;;;;;940620;27;20298;-75
2022/11/11 01:21:16;;;;;;;;;;;;;;;;;;940658;27;19923;-76
2022/11/11 01:21:47;;;;;;;;;;;;;;;;;;940583;27;19923;-76
2022/11/11 01:22:20;;;;;;;;;;;;;;;;;;940481;27;20162;-76
2022/11/11 01:22:51;;;;;;;;;;;;;;;;;;940503;27;19969;-77
2022/11/11 01:23:24;;;;;;;;;;;;;;;;;;940383;27;19973;-76
2022/11/11 01:23:57;;;;;;;;;;;;;;;;;;940617;27;19931;-76
2022/11/11 01:24:28;;;;;;;;;;;;;;;;;;940450;27;20170;-75
2022/11/11 01:24:59;;;;;;;;;;;;;;;;;;940513;27;19919;-77
2022/11/11 01:25:35;;;;;;;;;;;;;;;;;;940569;27;20265;-77
2022/11/11 01:26:08;;;;;;;;;;;;;;;;;;940478;27;19934;-76
2022/11/11 01:26:41;;;;;;;;;;;;;;;;;;940679;27;19927;-77
2022/11/11 01:27:12;;;;;;;;;;;;;;;;;;940590;27;19935;-76
2022/11/11 01:27:43;;;;;;;;;;;;;;;;;;940721;27;20240;-76
2022/11/11 01:28:16;;;;;;;;;;;;;;;;;;940524;27;20209;-76
2022/11/11 01:28:48;;;;;;;;;;;;;;;;;;940617;27;19934;-75
2022/11/11 01:29:18;;;;;;;;;;;;;;;;;;940454;27;20266;-76
2022/11/11 01:29:52;;;;;;;;;;;;;;;;;;940501;27;19923;-75
2022/11/11 01:30:22;;;;;;;;;;;;;;;;;;940562;27;19924;-76
2022/11/11 01:30:53;;;;;;;;;;;;;;;;;;940506;27;19946;-76
2022/11/11 01:31:27;;;;;;;;;;;;;;;;;;940443;27;19934;-76
2022/11/11 01:31:58;;;;;;;;;;;;;;;;;;940572;27;20279;-76
2022/11/11 01:32:28;;;;;;;;;;;;;;;;;;940499;27;19915;-77
2022/11/11 01:32:59;;;;;;;;;;;;;;;;;;940423;27;19938;-76
2022/11/11 01:33:33;;;;;;;;;;;;;;;;;;940579;27;19924;-76
2022/11/11 01:34:03;;;;;;;;;;;;;;;;;;940616;27;20441;-75
2022/11/11 01:34:34;;;;;;;;;;;;;;;;;;940440;27;19942;-75
2022/11/11 01:35:08;;;;;;;;;;;;;;;;;;940304;27;19965;-75
2022/11/11 01:35:39;;;;;;;;;;;;;;;;;;940509;27;19939;-76
2022/11/11 01:36:14;;;;;;;;;;;;;;;;;;940544;27;19923;-76
2022/11/11 01:36:44;;;;;;;;;;;;;;;;;;940513;27;19928;-77
2022/11/11 01:37:15;;;;;;;;;;;;;;;;;;940533;27;20149;-76
2022/11/11 01:37:46;;;;;;;;;;;;;;;;;;940586;27;19978;-75
2022/11/11 01:38:16;;;;;;;;;;;;;;;;;;940693;27;19923;-77
2022/11/11 01:38:53;;;;;;;;;;;;;;;;;;940537;27;20159;-76
2022/11/11 01:39:24;;;;;;;;;;;;;;;;;;940435;27;20179;-76
2022/11/11 01:39:54;;;;;;;;;;;;;;;;;;940410;27;19908;-75
2022/11/11 01:40:25;;;;;;;;;;;;;;;;;;940419;27;19931;-76
2022/11/11 01:40:59;;;;;;;;;;;;;;;;;;940530;27;19932;-76
2022/11/11 01:41:34;;;;;;;;;;;;;;;;;;940397;27;19975;-76
2022/11/11 01:42:04;;;;;;;;;;;;;;;;;;940592;27;19923;-76
2022/11/11 01:42:47;;;;;;;;;;;;;;;;;;940389;27;20472;-76
2022/11/11 01:43:20;;;;;;;;;;;;;;;;;;940390;27;19930;-76
2022/11/11 01:43:51;;;;;;;;;;;;;;;;;;940577;27;19983;-75
2022/11/11 01:44:40;;;;;;;;;;;;;;;;;;940506;27;19915;-76
2022/11/11 01:45:25;;;;;;;;;;;;;;;;;;940477;27;19923;-77
2022/11/11 01:45:58;;;;;;;;;;;;;;;;;;940343;27;19923;-76
2022/11/11 01:46:34;;;;;;;;;;;;;;;;;;940360;27;19918;-76
2022/11/11 01:47:06;;;;;;;;;;;;;;;;;;940562;27;19923;-75
2022/11/11 01:49:20;;;;;;;;;;;;;;;;;;940611;27;20221;-76
2022/11/11 01:49:54;;;;;;;;;;;;;;;;;;940499;27;19927;-76
2022/11/11 01:50:24;;;;;;;;;;;;;;;;;;940470;27;19938;-76
2022/11/11 01:50:56;;;;;;;;;;;;;;;;;;940473;27;19927;-76
2022/11/11 01:51:32;;;;;;;;;;;;;;;;;;940475;27;19956;-76
2022/11/11 01:52:06;;;;;;;;;;;;;;;;;;940515;27;19942;-76
2022/11/11 01:52:39;;;;;;;;;;;;;;;;;;940412;27;19946;-76
2022/11/11 01:53:12;;;;;;;;;;;;;;;;;;940460;27;19947;-77
2022/11/11 01:53:43;;;;;;;;;;;;;;;;;;940418;27;19984;-76
2022/11/11 01:54:20;;;;;;;;;;;;;;;;;;940460;27;19928;-76
2022/11/11 01:54:55;;;;;;;;;;;;;;;;;;940528;27;20310;-76
2022/11/11 01:55:26;;;;;;;;;;;;;;;;;;940423;27;20503;-77
2022/11/11 01:55:58;;;;;;;;;;;;;;;;;;940400;27;19935;-75
2022/11/11 01:56:29;;;;;;;;;;;;;;;;;;940594;27;19974;-76
2022/11/11 01:57:06;;;;;;;;;;;;;;;;;;940511;27;19950;-77
2022/11/11 01:57:39;;;;;;;;;;;;;;;;;;940461;27;20068;-76
2022/11/11 01:58:12;;;;;;;;;;;;;;;;;;940523;27;19931;-76
2022/11/11 01:58:43;;;;;;;;;;;;;;;;;;940458;27;20252;-76
2022/11/11 01:59:18;;;;;;;;;;;;;;;;;;940465;27;19924;-76
2022/11/11 01:59:49;;;;;;;;;;;;;;;;;;940509;27;19923;-76
2022/11/11 02:00:20;;;;;;;;;;;;;;;;;;940412;27;19915;-75
2022/11/11 02:00:51;;;;;;;;;;;;;;;;;;940395;27;20003;-76
2022/11/11 02:01:24;;;;;;;;;;;;;;;;;;940453;27;19919;-76
2022/11/11 02:01:55;;;;;;;;;;;;;;;;;;940403;27;19980;-76
2022/11/11 02:02:28;;;;;;;;;;;;;;;;;;940421;27;19977;-76
2022/11/11 02:03:05;;;;;;;;;;;;;;;;;;940484;27;19975;-76
2022/11/11 02:03:38;;;;;;;;;;;;;;;;;;940462;27;20147;-76
2022/11/11 02:05:42;;;;;;;;;;;;;;;;;;940447;27;19923;-75
2022/11/11 02:06:13;;;;;;;;;;;;;;;;;;940436;27;19920;-76
2022/11/11 02:06:44;;;;;;;;;;;;;;;;;;940488;27;19919;-76
2022/11/11 02:07:17;;;;;;;;;;;;;;;;;;940423;27;19982;-76
2022/11/11 02:07:48;;;;;;;;;;;;;;;;;;940500;27;19934;-79
2022/11/11 02:08:31;;;;;;;;;;;;;;;;;;940458;27;19928;-77
2022/11/11 02:09:06;;;;;;;;;;;;;;;;;;940489;27;19933;-75
2022/11/11 02:09:42;;;;;;;;;;;;;;;;;;940199;27;19934;-76
2022/11/11 02:10:13;;;;;;;;;;;;;;;;;;940149;27;20000;-75
2022/11/11 02:10:48;;;;;;;;;;;;;;;;;;940251;27;19942;-76
2022/11/11 02:14:34;;;;;;;;;;;;;;;;;;940463;27;19923;-76
2022/11/11 02:14:34;;;;;;;;;;;;;;;;;;940469;27;20018;-77
2022/11/11 02:15:08;;;;;;;;;;;;;;;;;;940290;27;19988;-76
2022/11/11 02:15:39;;;;;;;;;;;;;;;;;;940575;27;20148;-76
2022/11/11 02:16:10;;;;;;;;;;;;;;;;;;940528;27;20221;-76
2022/11/11 02:16:41;;;;;;;;;;;;;;;;;;940567;27;19976;-76
2022/11/11 02:17:16;;;;;;;;;;;;;;;;;;940339;27;19926;-75
2022/11/11 02:17:48;;;;;;;;;;;;;;;;;;940502;27;19931;-75
2022/11/11 02:18:18;;;;;;;;;;;;;;;;;;940507;27;19976;-75
2022/11/11 02:18:52;;;;;;;;;;;;;;;;;;940508;27;19931;-76
2022/11/11 02:19:27;;;;;;;;;;;;;;;;;;940417;27;19907;-75
2022/11/11 02:19:58;;;;;;;;;;;;;;;;;;940567;27;20529;-75
2022/11/11 02:20:34;;;;;;;;;;;;;;;;;;940376;27;19971;-75
2022/11/11 02:21:05;;;;;;;;;;;;;;;;;;940312;27;19927;-76
2022/11/11 02:21:41;;;;;;;;;;;;;;;;;;940424;27;19924;-76
2022/11/11 02:22:14;;;;;;;;;;;;;;;;;;940368;27;19931;-75
2022/11/11 02:22:50;;;;;;;;;;;;;;;;;;940343;27;19987;-75
2022/11/11 02:23:23;;;;;;;;;;;;;;;;;;940351;27;19930;-75
2022/11/11 02:24:01;;;;;;;;;;;;;;;;;;940406;27;19923;-77
2022/11/11 02:24:32;;;;;;;;;;;;;;;;;;940386;27;19930;-75
2022/11/11 02:25:08;;;;;;;;;;;;;;;;;;940473;27;20006;-76
2022/11/11 02:25:42;;;;;;;;;;;;;;;;;;940540;27;19919;-75
2022/11/11 02:26:15;;;;;;;;;;;;;;;;;;940331;27;19915;-76
2022/11/11 02:26:47;;;;;;;;;;;;;;;;;;940325;27;19931;-75
2022/11/11 02:27:20;;;;;;;;;;;;;;;;;;940388;27;19958;-76
2022/11/11 02:27:53;;;;;;;;;;;;;;;;;;940482;27;19934;-76
2022/11/11 02:28:24;;;;;;;;;;;;;;;;;;940489;27;19923;-77
2022/11/11 02:28:58;;;;;;;;;;;;;;;;;;940341;27;19973;-76
2022/11/11 02:29:29;;;;;;;;;;;;;;;;;;940472;27;19927;-76
2022/11/11 02:30:01;;;;;;;;;;;;;;;;;;940375;27;19924;-76
2022/11/11 02:30:34;;;;;;;;;;;;;;;;;;940466;27;19924;-75
2022/11/11 02:31:05;;;;;;;;;;;;;;;;;;940353;27;19934;-75
2022/11/11 02:31:36;;;;;;;;;;;;;;;;;;940361;27;19930;-75
2022/11/11 02:32:06;;;;;;;;;;;;;;;;;;940376;27;19977;-76
2022/11/11 02:32:40;;;;;;;;;;;;;;;;;;940314;27;20220;-76
2022/11/11 02:33:10;;;;;;;;;;;;;;;;;;939795;27;19976;-75
2022/11/11 02:33:41;;;;;;;;;;;;;;;;;;940479;27;20216;-76
2022/11/11 02:34:12;;;;;;;;;;;;;;;;;;940415;27;19910;-76
2022/11/11 02:34:45;;;;;;;;;;;;;;;;;;940462;27;19938;-77
2022/11/11 02:35:17;;;;;;;;;;;;;;;;;;940399;27;19908;-76
2022/11/11 02:35:54;;;;;;;;;;;;;;;;;;940632;27;19975;-77
2022/11/11 02:36:27;;;;;;;;;;;;;;;;;;940498;27;19927;-76
2022/11/11 02:36:58;;;;;;;;;;;;;;;;;;940386;27;19923;-76
2022/11/11 02:37:29;;;;;;;;;;;;;;;;;;940393;27;19934;-76
2022/11/11 02:38:07;;;;;;;;;;;;;;;;;;940483;27;19911;-75
2022/11/11 02:38:38;;;;;;;;;;;;;;;;;;940489;27;19927;-76
2022/11/11 02:39:11;;;;;;;;;;;;;;;;;;940386;27;19920;-75
2022/11/11 02:39:44;;;;;;;;;;;;;;;;;;940479;27;20025;-76
2022/11/11 02:40:19;;;;;;;;;;;;;;;;;;940491;27;19976;-76
2022/11/11 02:42:22;;;;;;;;;;;;;;;;;;940741;27;20008;-76
2022/11/11 02:42:56;;;;;;;;;;;;;;;;;;940789;27;20430;-77
2022/11/11 02:43:27;;;;;;;;;;;;;;;;;;940625;27;20430;-77
2022/11/11 02:43:57;;;;;;;;;;;;;;;;;;940639;27;19923;-78
2022/11/11 02:44:28;;;;;;;;;;;;;;;;;;940825;27;19973;-78
2022/11/11 02:45:01;;;;;;;;;;;;;;;;;;940678;27;19929;-77
2022/11/11 02:45:32;;;;;;;;;;;;;;;;;;940649;27;19907;-77
2022/11/11 02:46:03;;;;;;;;;;;;;;;;;;940641;27;19976;-77
2022/11/11 02:46:37;;;;;;;;;;;;;;;;;;940789;27;20510;-76
2022/11/11 02:47:07;;;;;;;;;;;;;;;;;;940695;27;19923;-78
2022/11/11 02:47:38;;;;;;;;;;;;;;;;;;940686;27;20254;-76
2022/11/11 02:48:11;;;;;;;;;;;;;;;;;;940688;27;21100;-77
2022/11/11 02:48:42;;;;;;;;;;;;;;;;;;940569;27;19975;-76
2022/11/11 02:49:13;;;;;;;;;;;;;;;;;;940538;27;19915;-76
2022/11/11 02:49:46;;;;;;;;;;;;;;;;;;940330;27;19991;-76
2022/11/11 02:50:17;;;;;;;;;;;;;;;;;;940415;27;19975;-76
2022/11/11 02:50:48;;;;;;;;;;;;;;;;;;940503;27;20220;-76
2022/11/11 02:51:19;;;;;;;;;;;;;;;;;;940391;27;19923;-76
2022/11/11 02:51:52;;;;;;;;;;;;;;;;;;940407;27;19911;-76
2022/11/11 02:52:23;;;;;;;;;;;;;;;;;;940349;27;20026;-76
2022/11/11 02:52:54;;;;;;;;;;;;;;;;;;940380;27;19949;-75
2022/11/11 02:53:27;;;;;;;;;;;;;;;;;;940312;27;20855;-75
2022/11/11 02:53:58;;;;;;;;;;;;;;;;;;940302;27;19904;-76
2022/11/11 02:54:31;;;;;;;;;;;;;;;;;;940339;27;20251;-75
2022/11/11 02:55:05;;;;;;;;;;;;;;;;;;940484;27;19923;-75
2022/11/11 02:55:35;;;;;;;;;;;;;;;;;;940319;27;20244;-74
2022/11/11 02:56:06;;;;;;;;;;;;;;;;;;940378;27;19934;-75
2022/11/11 02:57:26;;;;;;;;;;;;;;;;;;940475;27;20267;-75
2022/11/11 02:57:56;;;;;;;;;;;;;;;;;;940346;27;20238;-75
2022/11/11 02:58:27;;;;;;;;;;;;;;;;;;940228;27;19981;-76
2022/11/11 02:59:01;;;;;;;;;;;;;;;;;;940350;27;19931;-76
2022/11/11 02:59:32;;;;;;;;;;;;;;;;;;940258;27;19911;-76
2022/11/11 03:00:06;;;;;;;;;;;;;;;;;;940446;27;19923;-76
2022/11/11 03:00:36;;;;;;;;;;;;;;;;;;940282;27;19966;-76
2022/11/11 03:01:07;;;;;;;;;;;;;;;;;;940282;27;20229;-76
2022/11/11 03:01:38;;;;;;;;;;;;;;;;;;940425;27;19959;-76
2022/11/11 03:02:11;;;;;;;;;;;;;;;;;;940192;27;19923;-75
2022/11/11 03:02:42;;;;;;;;;;;;;;;;;;940187;27;19934;-76
2022/11/11 03:03:13;;;;;;;;;;;;;;;;;;940479;27;19907;-76
2022/11/11 03:03:43;;;;;;;;;;;;;;;;;;940279;27;19924;-75
2022/11/11 03:04:17;;;;;;;;;;;;;;;;;;940389;27;19924;-75
2022/11/11 03:04:47;;;;;;;;;;;;;;;;;;940313;27;19933;-75
2022/11/11 03:05:21;;;;;;;;;;;;;;;;;;940360;27;20017;-75
2022/11/11 03:05:51;;;;;;;;;;;;;;;;;;940263;27;20393;-76
2022/11/11 03:06:22;;;;;;;;;;;;;;;;;;940398;27;19923;-75
2022/11/11 03:06:53;;;;;;;;;;;;;;;;;;940376;27;19968;-75
2022/11/11 03:07:27;;;;;;;;;;;;;;;;;;940423;27;20248;-75
2022/11/11 03:07:57;;;;;;;;;;;;;;;;;;940246;27;20170;-76
2022/11/11 03:08:28;;;;;;;;;;;;;;;;;;940348;27;19920;-76
2022/11/11 03:08:59;;;;;;;;;;;;;;;;;;940266;27;20193;-76
2022/11/11 03:09:35;;;;;;;;;;;;;;;;;;940284;27;19964;-76
2022/11/11 03:10:06;;;;;;;;;;;;;;;;;;940435;27;19983;-75
2022/11/11 03:10:37;;;;;;;;;;;;;;;;;;940218;27;19931;-76
2022/11/11 03:11:10;;;;;;;;;;;;;;;;;;940323;27;20366;-76
2022/11/11 03:11:41;;;;;;;;;;;;;;;;;;940281;27;19923;-76
2022/11/11 03:12:11;;;;;;;;;;;;;;;;;;940435;27;20164;-76
2022/11/11 03:12:45;;;;;;;;;;;;;;;;;;940332;27;20152;-75
2022/11/11 03:13:15;;;;;;;;;;;;;;;;;;940390;27;19972;-75
2022/11/11 03:13:46;;;;;;;;;;;;;;;;;;940337;27;19980;-75
2022/11/11 03:14:19;;;;;;;;;;;;;;;;;;940347;27;19931;-75
2022/11/11 03:14:50;;;;;;;;;;;;;;;;;;940406;27;20651;-75
2022/11/11 03:15:23;;;;;;;;;;;;;;;;;;940418;27;19923;-75
2022/11/11 03:15:54;;;;;;;;;;;;;;;;;;940246;27;19923;-77
2022/11/11 03:17:56;;;;;;;;;;;;;;;;;;940338;27;19919;-75
2022/11/11 03:18:27;;;;;;;;;;;;;;;;;;940319;27;19923;-76
2022/11/11 03:18:57;;;;;;;;;;;;;;;;;;940371;27;20223;-75
2022/11/11 03:19:31;;;;;;;;;;;;;;;;;;940404;27;20386;-74
2022/11/11 03:21:32;;;;;;;;;;;;;;;;;;940422;27;19934;-75
2022/11/11 03:22:03;;;;;;;;;;;;;;;;;;940220;27;19981;-75
2022/11/11 03:22:37;;;;;;;;;;;;;;;;;;940274;27;19923;-76
2022/11/11 03:23:08;;;;;;;;;;;;;;;;;;940289;27;19943;-76
2022/11/11 03:23:39;;;;;;;;;;;;;;;;;;940391;27;19961;-76
2022/11/11 03:24:10;;;;;;;;;;;;;;;;;;940266;27;19980;-75
2022/11/11 03:25:41;;;;;;;;;;;;;;;;;;940215;27;19920;-76
2022/11/11 03:26:11;;;;;;;;;;;;;;;;;;940229;27;20007;-76
2022/11/11 03:26:42;;;;;;;;;;;;;;;;;;940407;27;19923;-76
2022/11/11 03:27:13;;;;;;;;;;;;;;;;;;940393;27;19971;-75
2022/11/11 03:27:46;;;;;;;;;;;;;;;;;;940438;27;19915;-75
2022/11/11 03:28:17;;;;;;;;;;;;;;;;;;940160;27;20260;-76
2022/11/11 03:28:48;;;;;;;;;;;;;;;;;;940411;27;19923;-75
2022/11/11 03:29:22;;;;;;;;;;;;;;;;;;940120;27;19927;-75
2022/11/11 03:29:52;;;;;;;;;;;;;;;;;;940340;27;20244;-76
2022/11/11 03:30:23;;;;;;;;;;;;;;;;;;940174;27;19969;-76
2022/11/11 03:30:57;;;;;;;;;;;;;;;;;;940290;27;19907;-76
2022/11/11 03:31:28;;;;;;;;;;;;;;;;;;940271;27;19914;-76
2022/11/11 03:31:58;;;;;;;;;;;;;;;;;;940299;27;20333;-76
2022/11/11 03:32:32;;;;;;;;;;;;;;;;;;940259;27;19923;-76
2022/11/11 03:33:03;;;;;;;;;;;;;;;;;;940190;27;19973;-75
2022/11/11 03:33:35;;;;;;;;;;;;;;;;;;940168;27;19924;-75
2022/11/11 03:34:56;;;;;;;;;;;;;;;;;;940104;27;20553;-77
2022/11/11 03:35:27;;;;;;;;;;;;;;;;;;940347;27;19918;-76
2022/11/11 03:35:57;;;;;;;;;;;;;;;;;;940330;27;20325;-76
2022/11/11 03:38:14;;;;;;;;;;;;;;;;;;940329;27;20025;-77
2022/11/11 03:38:15;;;;;;;;;;;;;;;;;;940366;27;19919;-76
2022/11/11 03:38:46;;;;;;;;;;;;;;;;;;940293;27;19935;-76
2022/11/11 03:39:16;;;;;;;;;;;;;;;;;;940183;27;20204;-75
2022/11/11 03:39:50;;;;;;;;;;;;;;;;;;940237;27;19977;-75
2022/11/11 03:40:20;;;;;;;;;;;;;;;;;;940151;27;19934;-76
2022/11/11 03:40:55;;;;;;;;;;;;;;;;;;940294;27;19942;-75
2022/11/11 03:41:25;;;;;;;;;;;;;;;;;;940190;27;19911;-76
2022/11/11 03:41:56;;;;;;;;;;;;;;;;;;940346;27;19923;-77
2022/11/11 03:42:27;;;;;;;;;;;;;;;;;;940230;27;20156;-76
2022/11/11 03:42:57;;;;;;;;;;;;;;;;;;940241;27;19930;-76
2022/11/11 03:43:31;;;;;;;;;;;;;;;;;;940268;27;19923;-75
2022/11/11 03:44:02;;;;;;;;;;;;;;;;;;940320;27;19923;-76
2022/11/11 03:44:33;;;;;;;;;;;;;;;;;;940243;27;19907;-76
2022/11/11 03:45:04;;;;;;;;;;;;;;;;;;940348;27;19927;-77
2022/11/11 03:45:37;;;;;;;;;;;;;;;;;;940214;27;19942;-75
2022/11/11 03:46:08;;;;;;;;;;;;;;;;;;940335;27;20273;-76
2022/11/11 03:46:38;;;;;;;;;;;;;;;;;;940201;27;19934;-76
2022/11/11 03:47:12;;;;;;;;;;;;;;;;;;940321;27;19931;-75
2022/11/11 03:47:42;;;;;;;;;;;;;;;;;;940280;27;19923;-76
2022/11/11 03:48:13;;;;;;;;;;;;;;;;;;940261;27;19923;-75
2022/11/11 03:48:47;;;;;;;;;;;;;;;;;;940265;27;19989;-76
2022/11/11 03:49:17;;;;;;;;;;;;;;;;;;940127;27;20834;-76
2022/11/11 03:49:48;;;;;;;;;;;;;;;;;;940296;27;19931;-76
2022/11/11 03:50:21;;;;;;;;;;;;;;;;;;940337;27;19931;-75
2022/11/11 03:50:52;;;;;;;;;;;;;;;;;;940204;27;19923;-77
2022/11/11 03:51:23;;;;;;;;;;;;;;;;;;940288;27;20113;-76
2022/11/11 03:51:56;;;;;;;;;;;;;;;;;;940201;27;19924;-76
2022/11/11 03:52:27;;;;;;;;;;;;;;;;;;940272;27;20228;-78
2022/11/11 03:52:57;;;;;;;;;;;;;;;;;;940264;27;19968;-76
2022/11/11 03:53:31;;;;;;;;;;;;;;;;;;940243;27;19923;-76
2022/11/11 03:54:01;;;;;;;;;;;;;;;;;;940250;27;19982;-77
2022/11/11 03:54:32;;;;;;;;;;;;;;;;;;940198;27;19932;-76
2022/11/11 03:55:09;;;;;;;;;;;;;;;;;;940299;27;19975;-75
2022/11/11 03:55:39;;;;;;;;;;;;;;;;;;940247;27;19938;-76
2022/11/11 03:56:10;;;;;;;;;;;;;;;;;;940197;27;19934;-76
2022/11/11 03:56:43;;;;;;;;;;;;;;;;;;940235;27;19969;-75
2022/11/11 03:58:00;;;;;;;;;;;;;;;;;;940276;27;19903;-75
2022/11/11 03:58:30;;;;;;;;;;;;;;;;;;940139;27;19984;-76
2022/11/11 03:59:04;;;;;;;;;;;;;;;;;;940178;27;19959;-76
2022/11/11 03:59:34;;;;;;;;;;;;;;;;;;940380;27;19923;-76
2022/11/11 04:00:05;;;;;;;;;;;;;;;;;;940129;27;19915;-76
2022/11/11 04:00:39;;;;;;;;;;;;;;;;;;940336;27;20243;-76
2022/11/11 04:10:21;;;;;;;;;;;;;;;;;;940208;27;20004;-76
2022/11/11 04:10:33;;;;;;;;;;;;;;;;;;940115;27;20421;-76
2022/11/11 04:11:06;;;;;;;;;;;;;;;;;;940083;27;20339;-76
2022/11/11 04:11:38;;;;;;;;;;;;;;;;;;940194;27;19911;-76
2022/11/11 04:12:11;;;;;;;;;;;;;;;;;;940152;27;19923;-75
2022/11/11 04:16:30;;;;;;;;;;;;;;;;;;940237;27;19970;-76
2022/11/11 04:17:03;;;;;;;;;;;;;;;;;;940165;27;20289;-76
2022/11/11 04:17:34;;;;;;;;;;;;;;;;;;940115;27;19923;-76
2022/11/11 04:18:05;;;;;;;;;;;;;;;;;;940229;27;19977;-75
2022/11/11 04:21:45;;;;;;;;;;;;;;;;;;939374;27;20257;-77
2022/11/11 04:22:18;;;;;;;;;;;;;;;;;;939337;27;19935;-75
2022/11/11 04:22:52;;;;;;;;;;;;;;;;;;940136;27;19924;-76
2022/11/11 04:23:23;;;;;;;;;;;;;;;;;;940371;27;19923;-76
2022/11/11 04:23:53;;;;;;;;;;;;;;;;;;940212;27;20518;-76
2022/11/11 04:26:04;;;;;;;;;;;;;;;;;;940133;27;19975;-76
2022/11/11 04:26:35;;;;;;;;;;;;;;;;;;940098;27;19923;-77
2022/11/11 04:27:07;;;;;;;;;;;;;;;;;;940053;27;19923;-76
2022/11/11 04:27:40;;;;;;;;;;;;;;;;;;940207;27;19908;-76
2022/11/11 04:29:42;;;;;;;;;;;;;;;;;;940221;27;19919;-75
2022/11/11 04:30:13;;;;;;;;;;;;;;;;;;940052;27;20311;-76
2022/11/11 04:30:44;;;;;;;;;;;;;;;;;;940075;27;19927;-75
2022/11/11 04:31:14;;;;;;;;;;;;;;;;;;940016;27;19942;-76
2022/11/11 04:32:42;;;;;;;;;;;;;;;;;;940041;27;20006;-75
2022/11/11 04:33:13;;;;;;;;;;;;;;;;;;940203;27;19938;-78
2022/11/11 04:33:44;;;;;;;;;;;;;;;;;;940683;27;19983;-77